createdAt,value
2022-09-30T00:01:25.776Z,23.37
2022-09-30T00:03:57.709Z,23.93
2022-09-30T00:06:25.600Z,28.43
2022-09-30T00:08:53.360Z,22.03
2022-09-30T00:11:26.228Z,30.00
2022-09-30T00:13:53.597Z,26.07
2022-09-30T00:16:22.184Z,27.10
2022-09-30T00:18:49.697Z,28.23
2022-09-30T00:21:17.246Z,25.73
2022-09-30T00:23:44.723Z,23.60
2022-09-30T00:26:15.201Z,24.83
2022-09-30T00:28:42.852Z,24.47
2022-09-30T00:31:13.799Z,26.07
2022-09-30T00:33:41.145Z,24.47
2022-09-30T00:36:07.793Z,26.63
2022-09-30T00:38:34.570Z,26.77
2022-09-30T00:41:02.672Z,24.60
2022-09-30T00:43:45.615Z,27.23
2022-09-30T00:46:35.303Z,28.23
2022-09-30T00:49:08.123Z,36.03
2022-09-30T00:51:43.420Z,28.67
2022-09-30T00:54:16.810Z,27.57
2022-09-30T00:56:50.907Z,27.63
2022-09-30T00:59:24.359Z,28.07
2022-09-30T01:01:52.051Z,28.40
2022-09-30T01:04:22.360Z,25.37
2022-09-30T01:06:50.457Z,31.17
2022-09-30T01:09:18.089Z,32.93
2022-09-30T01:11:45.619Z,28.03
2022-09-30T01:14:21.703Z,34.00
2022-09-30T01:17:19.567Z,29.00
2022-09-30T01:20:24.140Z,31.73
2022-09-30T01:22:59.760Z,31.07
2022-09-30T01:25:48.152Z,27.27
2022-09-30T01:28:29.975Z,28.40
2022-09-30T01:31:07.893Z,29.93
2022-09-30T01:33:34.634Z,28.80
2022-09-30T01:36:22.960Z,29.13
2022-09-30T01:39:00.136Z,29.17
2022-09-30T01:41:42.389Z,33.23
2022-09-30T01:44:37.989Z,28.70
2022-09-30T01:47:29.630Z,30.43
2022-09-30T01:49:59.170Z,26.47
2022-09-30T01:52:42.894Z,28.27
2022-09-30T01:55:15.623Z,27.07
2022-09-30T01:57:47.550Z,31.90
2022-09-30T02:00:15.388Z,31.17
2022-09-30T02:02:53.671Z,33.13
2022-09-30T02:05:29.705Z,28.57
2022-09-30T02:08:00.983Z,29.20
2022-09-30T02:10:47.203Z,28.43
2022-09-30T02:13:22.285Z,30.23
2022-09-30T02:15:55.827Z,30.87
2022-09-30T02:18:29.265Z,27.63
2022-09-30T02:21:02.146Z,26.93
2022-09-30T02:23:33.500Z,28.60
2022-09-30T02:26:07.048Z,30.50
2022-09-30T02:28:39.536Z,29.20
2022-09-30T02:31:11.188Z,30.13
2022-09-30T02:34:11.322Z,29.17
2022-09-30T02:36:45.553Z,29.10
2022-09-30T02:39:25.450Z,25.57
2022-09-30T02:41:58.959Z,30.90
2022-09-30T02:44:25.909Z,30.00
2022-09-30T02:47:07.778Z,28.53
2022-09-30T02:49:48.925Z,28.77
2022-09-30T02:52:27.613Z,26.20
2022-09-30T02:54:57.211Z,26.83
2022-09-30T02:57:48.817Z,29.37
2022-09-30T03:00:16.301Z,28.30
2022-09-30T03:02:42.929Z,29.87
2022-09-30T03:05:11.441Z,28.30
2022-09-30T03:07:38.578Z,28.83
2022-09-30T03:10:15.932Z,30.07
2022-09-30T03:13:10.433Z,25.73
2022-09-30T03:15:52.967Z,26.40
2022-09-30T03:18:38.810Z,26.53
2022-09-30T03:21:13.370Z,28.47
2022-09-30T03:23:53.929Z,27.47
2022-09-30T03:26:37.368Z,24.80
2022-09-30T03:29:09.818Z,24.70
2022-09-30T03:31:54.703Z,26.67
2022-09-30T03:34:27.599Z,26.07
2022-09-30T03:37:16.513Z,27.67
2022-09-30T03:40:03.039Z,28.17
2022-09-30T03:42:38.099Z,28.70
2022-09-30T03:45:16.003Z,25.57
2022-09-30T03:47:50.209Z,27.97
2022-09-30T03:50:21.778Z,26.20
2022-09-30T03:52:49.787Z,23.97
2022-09-30T03:55:17.348Z,26.20
2022-09-30T03:57:44.725Z,27.97
2022-09-30T04:00:13.044Z,31.67
2022-09-30T04:02:39.659Z,30.43
2022-09-30T04:05:06.889Z,28.93
2022-09-30T04:07:33.625Z,30.87
2022-09-30T04:10:00.408Z,29.70
2022-09-30T04:12:27.148Z,29.40
2022-09-30T04:14:53.817Z,51.67
2022-09-30T04:17:20.719Z,31.23
2022-09-30T04:19:47.434Z,33.70
2022-09-30T04:22:14.047Z,35.60
2022-09-30T04:24:40.743Z,33.23
2022-09-30T04:27:07.602Z,34.63
2022-09-30T04:29:34.275Z,28.27
2022-09-30T04:32:01.219Z,32.53
2022-09-30T04:34:27.812Z,32.80
2022-09-30T04:36:54.450Z,35.60
2022-09-30T04:39:21.125Z,37.33
2022-09-30T04:41:47.766Z,32.83
2022-09-30T04:44:14.437Z,37.60
2022-09-30T04:46:41.041Z,39.53
2022-09-30T04:49:09.470Z,36.23
2022-09-30T04:51:37.202Z,38.70
2022-09-30T04:54:04.618Z,41.83
2022-09-30T04:56:31.706Z,34.70
2022-09-30T04:59:01.369Z,36.73
2022-09-30T05:01:28.036Z,35.97
2022-09-30T05:03:54.895Z,35.40
2022-09-30T05:06:22.070Z,36.93
2022-09-30T05:08:50.200Z,31.43
2022-09-30T05:11:19.871Z,43.07
2022-09-30T05:13:47.251Z,36.07
2022-09-30T05:16:15.924Z,40.43
2022-09-30T05:18:45.611Z,34.27
2022-09-30T05:21:17.966Z,34.40
2022-09-30T05:23:44.939Z,36.13
2022-09-30T05:26:12.724Z,32.60
2022-09-30T05:28:41.236Z,34.67
2022-09-30T05:31:08.238Z,43.87
2022-09-30T05:33:35.911Z,41.47
2022-09-30T05:36:05.500Z,33.83
2022-09-30T05:38:32.331Z,39.23
2022-09-30T05:40:59.282Z,55.23
2022-09-30T05:43:25.982Z,36.23
2022-09-30T05:45:57.296Z,33.67
2022-09-30T05:48:25.687Z,34.57
2022-09-30T05:50:57.660Z,37.70
2022-09-30T05:53:24.655Z,37.73
2022-09-30T05:55:52.124Z,33.57
2022-09-30T05:58:19.465Z,34.40
2022-09-30T06:00:48.187Z,33.07
2022-09-30T06:03:15.993Z,34.97
2022-09-30T06:05:44.633Z,36.77
2022-09-30T06:08:12.104Z,34.47
2022-09-30T06:10:42.092Z,34.07
2022-09-30T06:13:09.188Z,35.20
2022-09-30T06:15:39.326Z,33.57
2022-09-30T06:18:06.137Z,34.20
2022-09-30T06:20:32.951Z,41.27
2022-09-30T06:23:03.112Z,39.73
2022-09-30T06:25:30.189Z,37.20
2022-09-30T06:27:57.417Z,40.80
2022-09-30T06:30:24.518Z,40.80
2022-09-30T06:32:51.600Z,44.40
2022-09-30T06:35:19.552Z,41.10
2022-09-30T06:37:46.429Z,41.73
2022-09-30T06:40:13.083Z,35.87
2022-09-30T06:42:39.822Z,42.07
2022-09-30T06:45:07.287Z,37.53
2022-09-30T06:47:34.051Z,38.97
2022-09-30T06:50:00.846Z,42.30
2022-09-30T06:52:27.573Z,36.07
2022-09-30T06:54:56.801Z,37.60
2022-09-30T06:57:26.811Z,39.83
2022-09-30T06:59:54.630Z,38.13
2022-09-30T07:02:22.154Z,36.67
2022-09-30T07:04:49.114Z,36.73
2022-09-30T07:07:15.861Z,34.03
2022-09-30T07:09:43.446Z,35.40
2022-09-30T07:12:10.640Z,31.50
2022-09-30T07:14:37.475Z,31.70
2022-09-30T07:17:06.022Z,33.27
2022-09-30T07:19:34.210Z,27.47
2022-09-30T07:22:21.840Z,29.70
2022-09-30T07:24:48.616Z,28.20
2022-09-30T07:27:15.295Z,28.63
2022-09-30T07:30:04.260Z,32.90
2022-09-30T07:32:29.810Z,29.30
2022-09-30T07:34:56.587Z,27.73
2022-09-30T07:37:25.156Z,27.50
2022-09-30T07:39:52.632Z,28.60
2022-09-30T07:42:23.196Z,29.00
2022-09-30T07:44:52.146Z,25.97
2022-09-30T07:47:19.614Z,27.90
2022-09-30T07:49:46.475Z,24.97
2022-09-30T07:52:14.077Z,23.10
2022-09-30T07:54:46.647Z,22.83
2022-09-30T07:57:14.984Z,23.67
2022-09-30T07:59:42.409Z,21.33
2022-09-30T08:02:15.230Z,25.33
2022-09-30T08:04:44.261Z,23.57
2022-09-30T08:07:12.747Z,25.40
2022-09-30T08:09:39.579Z,22.13
2022-09-30T08:12:06.439Z,22.30
2022-09-30T08:14:33.569Z,21.97
2022-09-30T08:17:00.847Z,26.47
2022-09-30T08:19:29.483Z,22.33
2022-09-30T08:21:57.261Z,24.57
2022-09-30T08:24:25.352Z,24.47
2022-09-30T08:26:52.598Z,24.63
2022-09-30T08:29:35.829Z,22.47
2022-09-30T08:32:07.007Z,20.53
2022-09-30T08:34:35.698Z,21.87
2022-09-30T08:37:07.878Z,22.93
2022-09-30T08:39:35.860Z,22.80
2022-09-30T08:42:35.646Z,23.70
2022-09-30T08:45:24.820Z,21.57
2022-09-30T08:48:03.170Z,18.37
2022-09-30T08:50:49.381Z,18.00
2022-09-30T08:53:25.157Z,20.93
2022-09-30T08:55:54.511Z,19.30
2022-09-30T08:58:27.634Z,20.43
2022-09-30T09:01:01.108Z,19.70
2022-09-30T09:03:31.277Z,21.70
2022-09-30T09:06:20.240Z,19.73
2022-09-30T09:08:59.028Z,20.00
2022-09-30T09:11:46.948Z,20.80
2022-09-30T09:14:19.810Z,21.27
2022-09-30T09:17:00.155Z,20.77
2022-09-30T09:19:36.588Z,23.63
2022-09-30T09:22:03.722Z,22.33
2022-09-30T09:24:50.693Z,20.60
2022-09-30T09:30:07.562Z,24.07
2022-09-30T09:32:36.163Z,20.97
2022-09-30T09:35:24.183Z,21.40
2022-09-30T09:38:26.002Z,23.73
2022-09-30T09:41:16.789Z,16.63
2022-09-30T09:43:56.313Z,18.50
2022-09-30T09:46:55.400Z,19.00
2022-09-30T09:49:24.182Z,18.33
2022-09-30T09:52:13.828Z,21.77
2022-09-30T09:54:51.265Z,17.13
2022-09-30T09:57:25.816Z,15.17
2022-09-30T10:00:28.052Z,17.30
2022-09-30T10:03:24.968Z,17.13
2022-09-30T10:06:03.537Z,14.40
2022-09-30T10:08:33.719Z,14.43
2022-09-30T10:11:06.256Z,10.07
2022-09-30T10:13:42.959Z,13.57
2022-09-30T10:16:36.056Z,9.47
2022-09-30T10:19:19.305Z,9.00
2022-09-30T10:21:46.357Z,10.93
2022-09-30T10:24:30.072Z,10.33
2022-09-30T10:26:56.821Z,8.93
2022-09-30T10:29:27.303Z,8.47
2022-09-30T10:31:58.978Z,9.10
2022-09-30T10:34:31.283Z,6.43
2022-09-30T10:37:02.218Z,5.57
2022-09-30T10:39:32.919Z,12.97
2022-09-30T10:42:06.027Z,4.73
2022-09-30T10:44:42.420Z,7.70
2022-09-30T10:47:13.780Z,5.30
2022-09-30T10:49:48.417Z,6.07
2022-09-30T10:52:25.805Z,5.40
2022-09-30T10:54:54.873Z,9.20
2022-09-30T10:57:32.942Z,5.27
2022-09-30T11:00:07.029Z,4.60
2022-09-30T11:02:53.159Z,6.63
2022-09-30T11:05:41.120Z,7.20
2022-09-30T11:08:16.838Z,6.87
2022-09-30T11:11:10.069Z,4.47
2022-09-30T11:13:50.343Z,8.93
2022-09-30T11:16:31.698Z,6.13
2022-09-30T11:19:20.269Z,7.27
2022-09-30T11:22:04.731Z,5.30
2022-09-30T11:24:51.104Z,4.73
2022-09-30T11:27:39.139Z,5.47
2022-09-30T11:30:20.386Z,4.87
2022-09-30T11:33:09.265Z,2.73
2022-09-30T11:35:42.971Z,5.17
2022-09-30T11:38:15.855Z,8.43
2022-09-30T11:41:01.617Z,2.93
2022-09-30T11:43:57.009Z,2.77
2022-09-30T11:46:59.040Z,1.90
2022-09-30T11:49:44.591Z,1.63
2022-09-30T11:52:29.241Z,2.33
2022-09-30T11:55:15.203Z,2.53
2022-09-30T11:58:22.413Z,6.40
2022-09-30T12:01:01.758Z,5.60
2022-09-30T12:03:42.525Z,2.90
2022-09-30T12:06:23.795Z,1.97
2022-09-30T12:08:56.995Z,3.27
2022-09-30T12:11:34.023Z,1.67
2022-09-30T12:14:09.742Z,7.40
2022-09-30T12:16:37.687Z,4.50
2022-09-30T12:19:25.124Z,3.07
2022-09-30T12:22:06.350Z,3.30
2022-09-30T12:24:37.708Z,3.80
2022-09-30T12:27:14.264Z,2.73
2022-09-30T12:30:12.626Z,4.73
2022-09-30T12:33:06.072Z,2.57
2022-09-30T12:35:47.833Z,3.07
2022-09-30T12:38:30.129Z,4.37
2022-09-30T12:41:17.565Z,2.00
2022-09-30T12:43:55.948Z,3.23
2022-09-30T12:46:48.631Z,5.17
2022-09-30T12:49:21.619Z,4.17
2022-09-30T12:51:56.893Z,4.73
2022-09-30T12:54:32.507Z,3.90
2022-09-30T12:57:03.844Z,2.83
2022-09-30T12:59:37.617Z,3.33
2022-09-30T13:02:07.038Z,3.47
2022-09-30T13:04:35.275Z,12.13
2022-09-30T13:07:01.831Z,5.03
2022-09-30T13:09:37.702Z,3.20
2022-09-30T13:12:04.236Z,2.00
2022-09-30T13:14:39.571Z,3.63
2022-09-30T13:17:09.184Z,3.20
2022-09-30T13:19:51.873Z,2.03
2022-09-30T13:22:18.593Z,4.53
2022-09-30T13:25:00.658Z,5.00
2022-09-30T13:27:47.885Z,3.03
2022-09-30T13:30:17.407Z,6.70
2022-09-30T13:33:04.256Z,2.13
2022-09-30T13:35:49.486Z,3.03
2022-09-30T13:38:18.559Z,3.13
2022-09-30T13:41:20.144Z,2.60
2022-09-30T13:44:05.184Z,2.77
2022-09-30T13:46:36.985Z,5.80
2022-09-30T13:49:45.719Z,4.03
2022-09-30T13:52:24.752Z,5.67
2022-09-30T13:54:52.522Z,4.53
2022-09-30T13:57:25.411Z,5.80
2022-09-30T14:00:06.742Z,3.83
2022-09-30T14:02:36.657Z,4.50
2022-09-30T14:05:37.095Z,3.90
2022-09-30T14:08:19.478Z,4.40
2022-09-30T14:11:16.567Z,4.53
2022-09-30T14:14:13.449Z,3.73
2022-09-30T14:17:21.768Z,5.10
2022-09-30T14:19:54.393Z,2.53
2022-09-30T14:22:25.792Z,2.43
2022-09-30T14:24:53.150Z,1.43
2022-09-30T14:27:38.012Z,1.33
2022-09-30T14:30:19.342Z,1.57
2022-09-30T14:32:52.834Z,3.10
2022-09-30T14:35:28.288Z,2.37
2022-09-30T14:38:01.198Z,2.27
2022-09-30T14:40:34.077Z,4.90
2022-09-30T14:43:07.208Z,2.90
2022-09-30T14:45:37.028Z,2.10
2022-09-30T14:48:15.550Z,4.67
2022-09-30T14:50:51.082Z,1.00
2022-09-30T14:53:58.479Z,1.83
2022-09-30T14:56:31.286Z,2.40
2022-09-30T14:58:59.825Z,2.00
2022-09-30T15:01:34.434Z,1.53
2022-09-30T15:04:14.862Z,4.93
2022-09-30T15:06:49.389Z,3.33
2022-09-30T15:09:36.215Z,2.20
2022-09-30T15:12:11.340Z,4.10
2022-09-30T15:14:52.218Z,1.70
2022-09-30T15:17:31.011Z,1.53
2022-09-30T15:19:58.780Z,1.83
2022-09-30T15:22:28.975Z,4.00
2022-09-30T15:24:57.744Z,1.70
2022-09-30T15:27:32.999Z,4.03
2022-09-30T15:30:01.951Z,3.37
2022-09-30T15:32:36.581Z,2.40
2022-09-30T15:35:23.954Z,2.33
2022-09-30T15:37:52.266Z,2.00
2022-09-30T15:40:43.086Z,2.43
2022-09-30T15:43:14.445Z,1.70
2022-09-30T15:45:46.016Z,3.43
2022-09-30T15:48:16.826Z,1.90
2022-09-30T15:50:55.853Z,2.60
2022-09-30T15:53:36.696Z,4.93
2022-09-30T15:56:19.599Z,3.47
2022-09-30T15:59:05.031Z,4.03
2022-09-30T16:01:36.676Z,4.43
2022-09-30T16:04:12.871Z,4.00
2022-09-30T16:07:07.693Z,2.70
2022-09-30T16:09:37.203Z,3.93
2022-09-30T16:15:15.038Z,2.83
2022-09-30T16:17:50.532Z,3.37
2022-09-30T16:23:37.391Z,5.23
2022-09-30T16:26:16.146Z,3.83
2022-09-30T16:28:45.662Z,3.73
2022-09-30T16:31:14.152Z,3.30
2022-09-30T16:33:43.163Z,3.43
2022-09-30T16:36:11.631Z,3.00
2022-09-30T16:38:38.812Z,3.33
2022-09-30T16:41:05.770Z,4.73
2022-09-30T16:43:32.802Z,5.77
2022-09-30T16:46:02.323Z,3.10
2022-09-30T16:48:29.237Z,3.47
2022-09-30T16:51:13.864Z,3.30
2022-09-30T16:53:41.505Z,3.90
2022-09-30T16:56:16.499Z,3.37
2022-09-30T16:58:44.213Z,3.10
2022-09-30T17:01:22.390Z,5.10
2022-09-30T17:03:49.454Z,14.00
2022-09-30T17:06:18.578Z,10.93
2022-09-30T17:08:45.473Z,6.80
2022-09-30T17:11:13.194Z,6.97
2022-09-30T17:13:40.811Z,6.03
2022-09-30T17:16:08.572Z,6.73
2022-09-30T17:18:35.289Z,6.87
2022-09-30T17:21:02.110Z,5.30
2022-09-30T17:23:28.826Z,6.63
2022-09-30T17:25:55.617Z,9.37
2022-09-30T17:28:22.469Z,5.30
2022-09-30T17:30:50.381Z,4.90
2022-09-30T17:33:20.805Z,7.20
2022-09-30T17:35:59.395Z,9.23
2022-09-30T17:38:27.027Z,6.07
2022-09-30T17:41:12.211Z,7.70
2022-09-30T17:43:39.266Z,8.00
2022-09-30T17:46:06.542Z,7.60
2022-09-30T17:48:33.330Z,13.57
2022-09-30T17:51:00.335Z,7.40
2022-09-30T17:53:30.811Z,9.63
2022-09-30T17:56:16.976Z,9.87
2022-09-30T17:58:47.365Z,9.63
2022-09-30T18:01:15.497Z,11.30
2022-09-30T18:03:42.218Z,10.07
2022-09-30T18:06:08.890Z,10.97
2022-09-30T18:08:35.902Z,14.50
2022-09-30T18:11:02.896Z,10.43
2022-09-30T18:13:29.871Z,9.67
2022-09-30T18:16:01.914Z,10.60
2022-09-30T18:18:29.409Z,11.83
2022-09-30T18:20:56.043Z,14.60
2022-09-30T18:23:22.821Z,14.30
2022-09-30T18:25:49.833Z,12.57
2022-09-30T18:28:16.817Z,12.77
2022-09-30T18:30:43.820Z,35.50
2022-09-30T18:33:11.023Z,19.17
2022-09-30T18:35:39.268Z,16.83
2022-09-30T18:38:06.801Z,14.47
2022-09-30T18:40:33.852Z,15.23
2022-09-30T18:43:02.678Z,11.03
2022-09-30T18:45:31.053Z,14.83
2022-09-30T18:48:00.049Z,15.20
2022-09-30T18:50:28.560Z,16.67
2022-09-30T18:52:55.835Z,14.23
2022-09-30T18:55:22.806Z,11.53
2022-09-30T18:57:53.321Z,13.23
2022-09-30T19:00:20.631Z,13.83
2022-09-30T19:02:47.284Z,12.60
2022-09-30T19:05:16.689Z,12.20
2022-09-30T19:07:43.423Z,13.33
2022-09-30T19:10:12.596Z,17.57
2022-09-30T19:12:40.600Z,13.50
2022-09-30T19:15:09.542Z,16.10
2022-09-30T19:17:37.538Z,13.97
2022-09-30T19:20:06.049Z,12.37
2022-09-30T19:22:37.105Z,14.00
2022-09-30T19:25:05.866Z,13.73
2022-09-30T19:27:33.495Z,12.83
2022-09-30T19:30:00.252Z,13.70
2022-09-30T19:32:29.379Z,15.77
2022-09-30T19:35:05.060Z,15.63
2022-09-30T19:37:33.213Z,15.50
2022-09-30T19:40:09.479Z,16.03
2022-09-30T19:42:39.983Z,15.60
2022-09-30T19:45:07.863Z,11.87
2022-09-30T19:47:34.827Z,14.37
2022-09-30T19:50:03.096Z,12.27
2022-09-30T19:52:30.227Z,14.20
2022-09-30T19:55:07.899Z,13.87
2022-09-30T19:57:42.120Z,16.63
2022-09-30T20:00:11.551Z,19.70
2022-09-30T20:02:38.528Z,25.77
2022-09-30T20:05:06.335Z,28.73
2022-09-30T20:07:33.308Z,22.73
2022-09-30T20:10:00.914Z,18.13
2022-09-30T20:12:28.997Z,16.77
2022-09-30T20:15:14.366Z,14.90
2022-09-30T20:17:41.041Z,14.93
2022-09-30T20:20:27.985Z,15.03
2022-09-30T20:22:54.714Z,14.53
2022-09-30T20:25:21.426Z,12.83
2022-09-30T20:27:52.165Z,12.90
2022-09-30T20:30:20.346Z,16.07
2022-09-30T20:32:47.042Z,14.33
2022-09-30T20:35:14.014Z,16.27
2022-09-30T20:37:42.381Z,13.10
2022-09-30T20:40:09.916Z,13.43
2022-09-30T20:42:38.481Z,14.47
2022-09-30T20:45:10.773Z,14.13
2022-09-30T20:47:43.826Z,11.80
2022-09-30T20:50:12.681Z,14.00
2022-09-30T20:52:39.347Z,14.80
2022-09-30T20:55:06.647Z,17.87
2022-09-30T20:57:33.343Z,15.33
2022-09-30T21:00:01.445Z,12.27
2022-09-30T21:02:29.055Z,16.93
2022-09-30T21:04:59.735Z,14.47
2022-09-30T21:07:27.066Z,17.07
2022-09-30T21:09:53.777Z,13.77
2022-09-30T21:12:20.485Z,13.80
2022-09-30T21:14:47.268Z,14.80
2022-09-30T21:17:13.968Z,12.83
2022-09-30T21:19:40.595Z,11.63
2022-09-30T21:22:07.354Z,13.23
2022-09-30T21:24:34.042Z,13.00
2022-09-30T21:27:01.766Z,15.30
2022-09-30T21:29:30.593Z,11.60
2022-09-30T21:31:57.773Z,11.73
2022-09-30T21:34:24.698Z,15.77
2022-09-30T21:36:51.546Z,13.40
2022-09-30T21:39:18.221Z,13.37
2022-09-30T21:41:46.084Z,15.27
2022-09-30T21:44:14.002Z,13.27
2022-09-30T21:46:43.666Z,13.17
2022-09-30T21:49:23.758Z,11.67
2022-09-30T21:51:52.955Z,14.13
2022-09-30T21:54:20.584Z,12.13
2022-09-30T21:56:48.520Z,13.53
2022-09-30T21:59:15.825Z,15.27
2022-09-30T22:01:42.596Z,14.87
2022-09-30T22:04:09.995Z,9.80
2022-09-30T22:06:36.731Z,12.53
2022-09-30T22:09:03.912Z,13.17
2022-09-30T22:11:31.557Z,12.67
2022-09-30T22:13:59.708Z,11.40
2022-09-30T22:16:29.841Z,13.83
2022-09-30T22:19:01.445Z,10.63
2022-09-30T22:21:32.026Z,16.47
2022-09-30T22:24:00.288Z,12.83
2022-09-30T22:26:28.552Z,12.33
2022-09-30T22:29:01.227Z,14.70
2022-09-30T22:31:30.574Z,10.33
2022-09-30T22:34:18.906Z,10.60
2022-09-30T22:37:04.551Z,14.60
2022-09-30T22:39:31.313Z,11.93
2022-09-30T22:41:58.851Z,10.90
2022-09-30T22:44:28.653Z,8.77
2022-09-30T22:47:00.238Z,11.53
2022-09-30T22:49:28.461Z,12.43
2022-09-30T22:51:57.071Z,10.43
2022-09-30T22:54:25.969Z,13.73
2022-09-30T22:56:54.481Z,13.77
2022-09-30T22:59:22.918Z,8.80
2022-09-30T23:01:49.687Z,10.03
2022-09-30T23:04:17.670Z,11.40
2022-09-30T23:06:48.336Z,9.43
2022-09-30T23:09:15.900Z,16.37
2022-09-30T23:11:45.364Z,10.77
2022-09-30T23:14:13.088Z,9.30
2022-09-30T23:16:40.621Z,8.93
2022-09-30T23:19:07.289Z,11.73
2022-09-30T23:21:34.291Z,8.27
2022-09-30T23:24:01.961Z,10.13
2022-09-30T23:26:30.099Z,10.93
2022-09-30T23:29:06.014Z,10.70
2022-09-30T23:31:33.713Z,9.70
2022-09-30T23:34:02.532Z,11.77
2022-09-30T23:36:33.217Z,10.43
2022-09-30T23:39:02.801Z,10.00
2022-09-30T23:41:31.033Z,10.80
2022-09-30T23:43:58.251Z,11.83
2022-09-30T23:46:24.994Z,9.70
2022-09-30T23:48:51.673Z,10.97
2022-09-30T23:51:19.211Z,12.27
2022-09-30T23:53:46.033Z,11.07
2022-09-30T23:56:15.508Z,11.40
2022-09-30T23:58:43.555Z,13.63
